Time;durP1;ratioP1;P1;durP2;ratioP2;P2;SDS_P1;SDS_P2;PMS_P1;PMS_P2;Temp;Humidity;BMP_temperature;BMP_pressure;BME280_temperature;BME280_humidity;BME280_pressure;Samples;Min_cycle;Max_cycle;Signal;HPM_P1;HPM_P2
2022/11/12 00:01:34;;;;;;;;;;;;;;;6.40;100.00;99296.06;4992652;28;20012;-89
2022/11/12 00:05:43;;;;;;;;;;;;;;;6.45;100.00;99310.50;4988051;28;19976;-89
2022/11/12 00:09:36;;;;;;;;;;;;;;;6.49;100.00;99290.28;4948016;29;20086;-89
2022/11/12 00:17:42;;;;;;;;;;;;;;;6.50;100.00;99249.00;4854988;29;19939;-89
2022/11/12 00:22:00;;;;;;;;;;;;;;;6.41;100.00;99236.91;4812160;29;19983;-88
2022/11/12 00:25:47;;;;;;;;;;;;;;;;;;;;;
2022/11/12 00:30:16;;;;;;;;;;;;;;;6.29;100.00;99215.28;4896756;29;19935;-88
2022/11/12 00:43:09;;;;;;;;;;;;;;;6.33;100.00;99239.81;4858667;29;19928;-88
2022/11/12 00:58:27;;;;;;;;;;;;;;;6.41;100.00;99261.03;4810268;29;19936;-88
2022/11/12 01:01:38;;;;;;;;;;;;;;;6.42;100.00;99249.25;4809120;29;20108;-88
2022/11/12 01:04:57;;;;;;;;;;;;;;;6.44;100.00;99254.41;4820640;29;19940;-88
2022/11/12 01:09:01;;;;;;;;;;;;;;;6.52;100.00;99251.50;4829903;29;19928;-88
2022/11/12 01:12:19;;;;;;;;;;;;;;;6.51;100.00;99239.13;4850383;29;19946;-88
2022/11/12 01:15:47;;;;;;;;;;;;;;;6.53;100.00;99241.59;4876055;29;19932;-88
2022/11/12 01:18:55;;;;;;;;;;;;;;;6.50;100.00;99222.19;4905079;28;20028;-88
2022/11/12 01:22:27;;;;;;;;;;;;;;;6.45;100.00;99216.66;4972644;28;19930;-88
2022/11/12 01:26:02;;;;;;;;;;;;;;;6.45;100.00;99219.31;4994731;28;19929;-88
2022/11/12 01:33:06;;;;;;;;;;;;;;;6.47;100.00;99201.19;5072681;28;19930;-88
2022/11/12 01:40:45;;;;;;;;;;;;;;;;;;;;;
2022/11/12 01:44:46;;;;;;;;;;;;;;;6.50;100.00;99202.59;5042828;28;19928;-88
2022/11/12 01:51:41;;;;;;;;;;;;;;;6.60;100.00;99196.78;5011767;28;20378;-88
2022/11/12 01:55:18;;;;;;;;;;;;;;;6.60;100.00;99194.13;4915016;29;19931;-87
2022/11/12 01:58:44;;;;;;;;;;;;;;;6.57;100.00;99203.41;4914720;29;19946;-87
2022/11/12 02:02:03;;;;;;;;;;;;;;;6.61;100.00;99196.59;4914679;29;19939;-87
2022/11/12 02:05:13;;;;;;;;;;;;;;;6.64;100.00;99206.06;4931077;29;19937;-87
2022/11/12 02:21:46;;;;;;;;;;;;;;;6.66;100.00;99172.63;5024302;28;20019;-88
2022/11/12 02:24:59;;;;;;;;;;;;;;;6.63;100.00;99156.13;4975431;28;19930;-88
2022/11/12 02:28:34;;;;;;;;;;;;;;;6.63;100.00;99161.50;4971419;28;20121;-87
2022/11/12 02:32:18;;;;;;;;;;;;;;;6.61;100.00;99155.53;4970927;28;19958;-88
2022/11/12 02:44:24;;;;;;;;;;;;;;;6.63;100.00;99145.41;4932529;29;19938;-87
2022/11/12 03:04:03;;;;;;;;;;;;;;;;;;;;;
2022/11/12 03:11:08;;;;;;;;;;;;;;;6.68;100.00;99132.16;4902492;29;19931;-86
2022/11/12 03:14:28;;;;;;;;;;;;;;;6.69;100.00;99123.09;4893421;29;19934;-87
2022/11/12 03:17:47;;;;;;;;;;;;;;;6.71;100.00;99132.56;4899482;29;19932;-88
2022/11/12 03:20:45;;;;;;;;;;;;;;;6.70;100.00;99130.91;4900835;29;19922;-88
2022/11/12 03:23:38;;;;;;;;;;;;;;;6.75;100.00;99114.19;4907927;29;20030;-88
2022/11/12 03:26:38;;;;;;;;;;;;;;;6.74;100.00;99112.53;4907858;29;20025;-87
2022/11/12 03:29:37;;;;;;;;;;;;;;;6.75;100.00;99110.69;4966329;28;19937;-87
2022/11/12 03:32:50;;;;;;;;;;;;;;;6.72;100.00;99107.38;4968743;28;19937;-87
2022/11/12 03:36:19;;;;;;;;;;;;;;;6.78;100.00;99094.16;4954895;28;19937;-87
2022/11/12 03:40:07;;;;;;;;;;;;;;;6.76;100.00;99091.69;4955220;28;19930;-87
2022/11/12 03:42:59;;;;;;;;;;;;;;;6.73;100.00;99081.38;4956404;28;19998;-87
2022/11/12 03:46:38;;;;;;;;;;;;;;;6.76;100.00;99080.97;4989624;28;19976;-88
2022/11/12 03:49:54;;;;;;;;;;;;;;;6.78;100.00;99078.88;5066793;28;19935;-87
2022/11/12 03:52:55;;;;;;;;;;;;;;;6.83;100.00;99081.72;5070015;28;20030;-87
2022/11/12 03:55:42;;;;;;;;;;;;;;;6.78;100.00;99086.91;5068659;28;19936;-87
2022/11/12 03:58:44;;;;;;;;;;;;;;;6.79;100.00;99077.84;5073893;28;20406;-87
2022/11/12 04:01:33;;;;;;;;;;;;;;;6.79;100.00;99091.25;5072956;28;19928;-87
2022/11/12 04:04:21;;;;;;;;;;;;;;;6.81;100.00;99083.81;5073659;28;20026;-86
2022/11/12 04:10:19;;;;;;;;;;;;;;;6.85;100.00;99078.81;5073467;28;19940;-87
2022/11/12 04:13:32;;;;;;;;;;;;;;;6.88;100.00;99086.44;5073081;28;19951;-87
2022/11/12 04:33:30;;;;;;;;;;;;;;;6.89;100.00;99054.03;4917460;29;19942;-87
2022/11/12 04:37:00;;;;;;;;;;;;;;;6.91;100.00;99043.06;4821509;29;20361;-85
2022/11/12 04:48:21;;;;;;;;;;;;;;;;;;;;;
2022/11/12 04:55:22;;;;;;;;;;;;;;;7.08;100.00;99057.56;4763537;30;19937;-88
2022/11/12 04:58:52;;;;;;;;;;;;;;;7.14;100.00;99051.34;4769896;30;19957;-86
2022/11/12 05:02:21;;;;;;;;;;;;;;;7.14;100.00;99058.53;4787313;29;19952;-86
2022/11/12 05:05:25;;;;;;;;;;;;;;;7.15;100.00;99047.59;4869109;29;19935;-86
2022/11/12 05:12:04;;;;;;;;;;;;;;;7.15;100.00;99036.88;4838829;29;19936;-85
2022/11/12 05:19:08;;;;;;;;;;;;;;;7.21;100.00;99021.72;4904464;29;19937;-87
2022/11/12 05:22:14;;;;;;;;;;;;;;;7.20;100.00;99049.63;4947421;29;19934;-85
2022/11/12 05:25:35;;;;;;;;;;;;;;;7.19;100.00;99026.53;4948409;29;19949;-88
2022/11/12 05:33:12;;;;;;;;;;;;;;;7.24;100.00;99041.94;4932667;29;19938;-86
2022/11/12 05:36:31;;;;;;;;;;;;;;;7.20;100.00;99022.78;4948760;29;19937;-88
2022/11/12 05:47:22;;;;;;;;;;;;;;;7.34;100.00;99026.13;4930306;29;19933;-86
2022/11/12 05:51:01;;;;;;;;;;;;;;;7.32;100.00;99012.94;4970338;28;19979;-86
2022/11/12 05:54:05;;;;;;;;;;;;;;;7.35;100.00;99009.00;5075572;28;19928;-86
2022/11/12 05:57:19;;;;;;;;;;;;;;;7.29;100.00;99010.72;5067471;28;19935;-86
2022/11/12 06:00:47;;;;;;;;;;;;;;;7.30;100.00;99015.03;5089510;28;19978;-87
2022/11/12 06:04:02;;;;;;;;;;;;;;;7.29;100.00;99018.78;5060569;28;19982;-87
2022/11/12 06:10:56;;;;;;;;;;;;;;;7.42;100.00;99025.03;5048934;28;20040;-87
2022/11/12 06:14:13;;;;;;;;;;;;;;;7.45;100.00;99032.66;5049115;28;19929;-86
2022/11/12 06:16:59;;;;;;;;;;;;;;;7.46;100.00;99018.16;5036699;28;19983;-85
2022/11/12 06:20:24;;;;;;;;;;;;;;;7.48;100.00;99010.72;5028017;28;20406;-86
2022/11/12 06:23:27;;;;;;;;;;;;;;;7.50;100.00;99035.50;5009830;28;19987;-88
2022/11/12 06:27:05;;;;;;;;;;;;;;;7.58;100.00;99014.50;5013080;28;20035;-86
2022/11/12 06:30:25;;;;;;;;;;;;;;;7.63;100.00;99013.03;5006730;28;21133;-87
2022/11/12 06:33:33;;;;;;;;;;;;;;;7.61;100.00;99023.97;5019133;28;19940;-86
2022/11/12 06:36:34;;;;;;;;;;;;;;;7.61;100.00;99002.50;5020115;28;19929;-87
2022/11/12 06:40:00;;;;;;;;;;;;;;;7.56;100.00;99003.16;5017038;28;19941;-87
2022/11/12 06:43:22;;;;;;;;;;;;;;;7.60;100.00;99001.69;5009717;28;19929;-89
2022/11/12 06:59:39;;;;;;;;;;;;;;;7.67;100.00;98990.88;4875271;29;19932;-86
2022/11/12 07:02:58;;;;;;;;;;;;;;;7.69;100.00;98985.25;4875603;29;19931;-86
2022/11/12 07:06:04;;;;;;;;;;;;;;;7.72;100.00;98972.19;4841060;29;20063;-86
2022/11/12 07:09:20;;;;;;;;;;;;;;;7.69;100.00;98963.75;4876158;29;19932;-86
2022/11/12 07:12:42;;;;;;;;;;;;;;;7.75;100.00;98957.50;4841496;29;20459;-86
2022/11/12 07:16:05;;;;;;;;;;;;;;;7.82;100.00;98960.88;4840159;29;19981;-85
2022/11/12 07:19:41;;;;;;;;;;;;;;;7.91;100.00;98953.34;4874043;29;19975;-86
2022/11/12 07:24:22;;;;;;;;;;;;;;;7.88;100.00;98945.75;4882202;29;19967;-87
2022/11/12 07:32:06;;;;;;;;;;;;;;;;;;;;;
2022/11/12 07:35:32;;;;;;;;;;;;;;;7.92;100.00;98938.84;4876895;29;19931;-85
2022/11/12 07:38:43;;;;;;;;;;;;;;;7.95;100.00;98927.63;4915334;29;20020;-87
2022/11/12 07:46:04;;;;;;;;;;;;;;;8.01;100.00;98895.31;4817425;29;20368;-86
2022/11/12 07:49:37;;;;;;;;;;;;;;;8.05;100.00;98895.66;4819467;29;20527;-86
2022/11/12 07:52:41;;;;;;;;;;;;;;;8.02;100.00;98896.94;4820002;29;20416;-91
2022/11/12 07:56:03;;;;;;;;;;;;;;;8.18;100.00;98889.28;4823191;29;19932;-87
2022/11/12 07:59:25;;;;;;;;;;;;;;;8.28;100.00;98894.03;4823961;29;20416;-87
2022/11/12 08:02:29;;;;;;;;;;;;;;;8.24;100.00;98894.53;4823698;29;19950;-89
2022/11/12 08:05:40;;;;;;;;;;;;;;;8.24;100.00;98889.13;4851269;29;20423;-89
2022/11/12 08:09:07;;;;;;;;;;;;;;;8.25;100.00;98885.41;4910866;29;19938;-90
2022/11/12 08:11:53;;;;;;;;;;;;;;;8.18;100.00;98897.34;4932985;29;20028;-87
2022/11/12 08:14:56;;;;;;;;;;;;;;;8.15;100.00;98887.88;4930511;28;20320;-87
2022/11/12 08:18:16;;;;;;;;;;;;;;;8.15;100.00;98873.56;4971583;28;19930;-86
2022/11/12 08:21:09;;;;;;;;;;;;;;;8.19;100.00;98864.81;4983254;28;20020;-85
2022/11/12 08:23:57;;;;;;;;;;;;;;;8.25;100.00;98858.53;4980570;28;19969;-85
2022/11/12 08:26:45;;;;;;;;;;;;;;;8.31;100.00;98851.41;4982340;28;19938;-88
2022/11/12 08:29:32;;;;;;;;;;;;;;;8.31;100.00;98850.59;4976614;28;19930;-85
2022/11/12 08:32:34;;;;;;;;;;;;;;;8.21;100.00;98840.41;4982247;28;20019;-87
2022/11/12 08:35:23;;;;;;;;;;;;;;;8.18;100.00;98836.31;5039655;28;19968;-87
2022/11/12 08:38:28;;;;;;;;;;;;;;;8.16;100.00;98835.72;5054545;28;19929;-87
2022/11/12 08:41:20;;;;;;;;;;;;;;;8.10;100.00;98823.22;5054119;28;20302;-87
2022/11/12 08:44:10;;;;;;;;;;;;;;;8.16;100.00;98811.53;5054506;28;19975;-89
2022/11/12 08:47:10;;;;;;;;;;;;;;;8.09;100.00;98810.81;5054794;28;19975;-88
2022/11/12 08:50:08;;;;;;;;;;;;;;;8.09;100.00;98805.44;5041042;28;19929;-87
2022/11/12 08:53:03;;;;;;;;;;;;;;;8.13;100.00;98816.56;5054019;28;19928;-87
2022/11/12 08:55:57;;;;;;;;;;;;;;;8.14;100.00;98800.19;5039913;28;19928;-86
2022/11/12 08:59:19;;;;;;;;;;;;;;;8.14;100.00;98802.88;5043335;28;20039;-87
2022/11/12 09:02:11;;;;;;;;;;;;;;;8.19;100.00;98797.63;5039858;28;20035;-88
2022/11/12 09:04:58;;;;;;;;;;;;;;;8.18;100.00;98787.13;5039813;28;20466;-88
2022/11/12 09:08:17;;;;;;;;;;;;;;;8.20;100.00;98788.53;5044329;28;19936;-87
2022/11/12 09:11:15;;;;;;;;;;;;;;;8.19;100.00;98768.03;5055254;28;20079;-87
2022/11/12 09:14:28;;;;;;;;;;;;;;;8.24;100.00;98764.66;5010311;28;19929;-87
2022/11/12 09:17:48;;;;;;;;;;;;;;;8.21;100.00;98739.06;5061120;28;20023;-88
2022/11/12 09:21:23;;;;;;;;;;;;;;;8.20;100.00;98747.34;5045513;28;19968;-87
2022/11/12 09:24:48;;;;;;;;;;;;;;;8.26;100.00;98743.75;5015333;28;19960;-87
2022/11/12 09:27:40;;;;;;;;;;;;;;;8.19;100.00;98741.16;5001840;28;19929;-87
2022/11/12 09:30:34;;;;;;;;;;;;;;;8.19;100.00;98737.66;5017959;28;20416;-87
2022/11/12 09:37:01;;;;;;;;;;;;;;;8.17;100.00;98715.56;4952979;29;19934;-87
2022/11/12 09:39:47;;;;;;;;;;;;;;;8.13;100.00;98685.66;4953274;29;19931;-87
2022/11/12 09:42:33;;;;;;;;;;;;;;;8.15;100.00;98697.00;4954274;29;20417;-88
2022/11/12 09:45:25;;;;;;;;;;;;;;;8.12;100.00;98708.22;4941165;29;19931;-87
2022/11/12 09:48:42;;;;;;;;;;;;;;;8.14;100.00;98689.97;4937693;29;19930;-87
2022/11/12 09:51:34;;;;;;;;;;;;;;;8.14;100.00;98684.59;4954148;29;19935;-87
2022/11/12 09:54:33;;;;;;;;;;;;;;;8.18;100.00;98672.34;4952417;28;20405;-88
2022/11/12 09:57:59;;;;;;;;;;;;;;;;;;;;;
2022/11/12 10:01:15;;;;;;;;;;;;;;;8.17;100.00;98643.81;4991253;28;20371;-87
2022/11/12 10:04:15;;;;;;;;;;;;;;;8.15;100.00;98647.78;4962907;28;19933;-87
2022/11/12 10:07:41;;;;;;;;;;;;;;;8.18;100.00;98636.59;4979690;28;20024;-87
2022/11/12 10:11:13;;;;;;;;;;;;;;;8.19;100.00;98627.44;4982013;28;19933;-87
2022/11/12 10:14:52;;;;;;;;;;;;;;;8.17;100.00;98641.13;4970729;28;20427;-87
2022/11/12 10:17:43;;;;;;;;;;;;;;;8.18;100.00;98625.81;4944545;28;20467;-87
2022/11/12 10:20:58;;;;;;;;;;;;;;;8.23;100.00;98607.94;4972286;28;20017;-88
2022/11/12 10:23:45;;;;;;;;;;;;;;;8.29;100.00;98626.84;4952523;29;19930;-88
2022/11/12 10:26:35;;;;;;;;;;;;;;;8.24;100.00;98603.34;4935542;29;19938;-88
2022/11/12 10:33:01;;;;;;;;;;;;;;;;;;;;;
2022/11/12 10:35:49;;;;;;;;;;;;;;;8.25;100.00;98611.19;4952094;29;19930;-87
2022/11/12 10:38:35;;;;;;;;;;;;;;;8.23;100.00;98624.06;4953865;29;19973;-85
2022/11/12 10:41:27;;;;;;;;;;;;;;;8.21;100.00;98598.47;4940943;29;20464;-88
2022/11/12 10:44:23;;;;;;;;;;;;;;;8.18;100.00;98615.88;4949289;29;19938;-87
2022/11/12 10:47:42;;;;;;;;;;;;;;;8.16;100.00;98604.56;4944847;29;19930;-87
2022/11/12 10:50:31;;;;;;;;;;;;;;;8.16;100.00;98599.19;4937555;28;19953;-90
2022/11/12 10:53:52;;;;;;;;;;;;;;;8.16;100.00;98622.56;4988481;28;20305;-88
2022/11/12 10:56:51;;;;;;;;;;;;;;;8.14;100.00;98614.72;5011285;28;20036;-88
2022/11/12 10:59:44;;;;;;;;;;;;;;;8.11;100.00;98609.00;5057285;28;20286;-87
2022/11/12 11:02:45;;;;;;;;;;;;;;;8.11;100.00;98587.50;5103141;28;20023;-88
2022/11/12 11:05:49;;;;;;;;;;;;;;;8.14;100.00;98584.34;5067354;28;19935;-88
2022/11/12 11:08:43;;;;;;;;;;;;;;;8.14;100.00;98597.78;5065225;28;19971;-88
2022/11/12 11:12:05;;;;;;;;;;;;;;;8.12;100.00;98581.88;5071843;28;19987;-88
2022/11/12 11:15:09;;;;;;;;;;;;;;;8.12;100.00;98589.94;5057438;28;19935;-89
2022/11/12 11:18:02;;;;;;;;;;;;;;;8.11;100.00;98560.63;5043747;28;20322;-88
2022/11/12 11:21:16;;;;;;;;;;;;;;;8.06;100.00;98558.66;5078351;28;20574;-86
2022/11/12 11:28:19;;;;;;;;;;;;;;;8.06;100.00;98539.84;5021455;28;19929;-85
2022/11/12 11:31:19;;;;;;;;;;;;;;;8.10;100.00;98535.63;5003026;28;19929;-85
2022/11/12 11:34:30;;;;;;;;;;;;;;;8.09;100.00;98514.38;5012683;28;19936;-85
2022/11/12 11:37:26;;;;;;;;;;;;;;;8.08;100.00;98505.50;5017091;28;20562;-87
2022/11/12 11:40:29;;;;;;;;;;;;;;;8.10;100.00;98503.38;5012603;28;19933;-88
2022/11/12 11:43:22;;;;;;;;;;;;;;;8.09;100.00;98490.19;5001447;28;19952;-86
2022/11/12 11:46:16;;;;;;;;;;;;;;;8.09;100.00;98488.28;4994979;28;19929;-86
2022/11/12 11:49:22;;;;;;;;;;;;;;;8.08;100.00;98475.94;5025655;28;19928;-85
2022/11/12 11:52:17;;;;;;;;;;;;;;;8.09;100.00;98474.84;5021191;28;19929;-86
2022/11/12 11:55:13;;;;;;;;;;;;;;;8.09;100.00;98476.75;5023916;28;19929;-85
2022/11/12 11:58:31;;;;;;;;;;;;;;;8.10;100.00;98479.19;5025791;28;19975;-86
2022/11/12 12:01:43;;;;;;;;;;;;;;;8.11;100.00;98456.63;5016894;28;20016;-86
2022/11/12 12:04:28;;;;;;;;;;;;;;;8.11;100.00;98459.31;5029113;28;19928;-86
2022/11/12 12:07:25;;;;;;;;;;;;;;;8.11;100.00;98427.06;5053234;28;19928;-84
2022/11/12 12:10:11;;;;;;;;;;;;;;;8.11;100.00;98407.44;5071926;28;19939;-84
2022/11/12 12:13:05;;;;;;;;;;;;;;;8.09;100.00;98434.53;5070744;28;19934;-85
2022/11/12 12:15:55;;;;;;;;;;;;;;;8.12;100.00;98430.56;5077093;28;19959;-85
2022/11/12 12:18:49;;;;;;;;;;;;;;;8.10;100.00;98422.75;5090297;28;19937;-85
2022/11/12 12:21:37;;;;;;;;;;;;;;;8.14;100.00;98417.69;5096727;28;19928;-85
2022/11/12 12:24:32;;;;;;;;;;;;;;;8.15;100.00;98422.00;5066022;28;20005;-85
2022/11/12 12:27:22;;;;;;;;;;;;;;;8.18;100.00;98416.16;5054410;28;20330;-85
2022/11/12 12:30:18;;;;;;;;;;;;;;;8.18;100.00;98391.97;5064549;28;19935;-85
2022/11/12 12:33:13;;;;;;;;;;;;;;;8.19;100.00;98418.59;5074045;28;19928;-85
2022/11/12 12:36:10;;;;;;;;;;;;;;;8.23;100.00;98414.38;5059639;28;19929;-85
2022/11/12 12:39:07;;;;;;;;;;;;;;;8.22;100.00;98385.84;5058816;28;19928;-85
2022/11/12 12:42:01;;;;;;;;;;;;;;;8.24;100.00;98397.16;5083440;28;20439;-85
2022/11/12 12:45:00;;;;;;;;;;;;;;;8.28;100.00;98388.59;5070886;28;19960;-85
2022/11/12 12:47:46;;;;;;;;;;;;;;;8.29;100.00;98369.56;5097982;28;19932;-86
2022/11/12 12:50:37;;;;;;;;;;;;;;;8.30;100.00;98356.94;5068987;28;20305;-86
2022/11/12 12:53:26;;;;;;;;;;;;;;;8.34;100.00;98366.13;5065607;28;20314;-85
2022/11/12 12:56:29;;;;;;;;;;;;;;;8.36;100.00;98372.91;5089756;28;19928;-86
2022/11/12 12:59:19;;;;;;;;;;;;;;;8.38;100.00;98349.28;5093720;28;20287;-85
2022/11/12 13:02:14;;;;;;;;;;;;;;;8.40;100.00;98341.78;5064528;28;19928;-86
2022/11/12 13:05:02;;;;;;;;;;;;;;;8.41;100.00;98348.00;5079015;28;20045;-88
2022/11/12 13:07:53;;;;;;;;;;;;;;;8.41;100.00;98339.94;5094122;28;19928;-87
2022/11/12 13:10:48;;;;;;;;;;;;;;;8.44;100.00;98334.06;5087160;28;20405;-87
2022/11/12 13:13:35;;;;;;;;;;;;;;;8.48;100.00;98334.38;5043955;28;20424;-87
2022/11/12 13:16:49;;;;;;;;;;;;;;;8.55;100.00;98326.94;5083759;28;19928;-87
2022/11/12 13:19:53;;;;;;;;;;;;;;;8.55;100.00;98317.00;5083292;28;20398;-86
2022/11/12 13:22:54;;;;;;;;;;;;;;;8.58;100.00;98335.34;5079399;28;20313;-86
2022/11/12 13:25:40;;;;;;;;;;;;;;;8.62;100.00;98317.63;5064476;28;20089;-87
2022/11/12 13:28:29;;;;;;;;;;;;;;;8.65;100.00;98308.25;5097068;28;20022;-87
2022/11/12 13:31:26;;;;;;;;;;;;;;;8.65;100.00;98289.41;5089549;28;19936;-87
2022/11/12 13:34:26;;;;;;;;;;;;;;;8.67;100.00;98301.56;5079144;28;20326;-87
2022/11/12 13:37:17;;;;;;;;;;;;;;;8.69;100.00;98304.00;5073046;28;19932;-86
2022/11/12 13:40:03;;;;;;;;;;;;;;;8.71;100.00;98283.06;5046488;28;20381;-86
2022/11/12 13:42:52;;;;;;;;;;;;;;;8.77;100.00;98294.69;5056166;28;19928;-87
2022/11/12 13:45:43;;;;;;;;;;;;;;;8.75;100.00;98294.13;5072524;28;19929;-88
2022/11/12 13:48:30;;;;;;;;;;;;;;;8.81;100.00;98280.50;5111055;28;19935;-89
2022/11/12 13:51:25;;;;;;;;;;;;;;;8.79;100.00;98296.06;5089370;28;20054;-91
2022/11/12 13:54:26;;;;;;;;;;;;;;;8.80;100.00;98289.63;5056796;28;19928;-88
2022/11/12 13:57:23;;;;;;;;;;;;;;;8.80;100.00;98303.06;5061656;28;19963;-87
2022/11/12 14:00:17;;;;;;;;;;;;;;;8.84;100.00;98296.13;5074341;28;19955;-87
2022/11/12 14:03:12;;;;;;;;;;;;;;;8.86;100.00;98306.63;5074095;28;20404;-87
2022/11/12 14:06:01;;;;;;;;;;;;;;;8.89;100.00;98308.84;5058216;28;19929;-88
2022/11/12 14:08:48;;;;;;;;;;;;;;;8.93;100.00;98307.25;5070525;28;20236;-87
2022/11/12 14:15:57;;;;;;;;;;;;;;;8.95;100.00;98312.41;5084509;28;20027;-87
2022/11/12 14:19:01;;;;;;;;;;;;;;;8.96;100.00;98295.97;5079858;28;19928;-88
2022/11/12 14:21:57;;;;;;;;;;;;;;;8.93;100.00;98291.09;5064224;28;20306;-88
2022/11/12 14:25:00;;;;;;;;;;;;;;;9.03;100.00;98303.88;5058606;28;19928;-87
2022/11/12 14:27:47;;;;;;;;;;;;;;;9.01;100.00;98293.34;5082454;28;19937;-88
2022/11/12 14:30:33;;;;;;;;;;;;;;;9.00;100.00;98299.81;5078689;28;19928;-87
2022/11/12 14:33:25;;;;;;;;;;;;;;;9.00;100.00;98307.88;5075199;28;19975;-88
2022/11/12 14:36:17;;;;;;;;;;;;;;;9.00;100.00;98289.03;5063127;28;20318;-88
2022/11/12 14:39:04;;;;;;;;;;;;;;;9.05;100.00;98304.44;5068228;28;20215;-88
2022/11/12 14:41:53;;;;;;;;;;;;;;;9.05;100.00;98307.94;5067825;28;19935;-89
2022/11/12 14:44:43;;;;;;;;;;;;;;;9.07;100.00;98310.41;5077576;28;20312;-89
2022/11/12 14:47:38;;;;;;;;;;;;;;;9.08;100.00;98323.59;5090811;28;19927;-88
2022/11/12 14:50:31;;;;;;;;;;;;;;;9.10;100.00;98320.66;5076547;28;19935;-89
2022/11/12 14:53:47;;;;;;;;;;;;;;;9.08;100.00;98296.66;5079506;28;19928;-89
2022/11/12 14:56:56;;;;;;;;;;;;;;;9.14;100.00;98302.94;5075414;28;20302;-89
2022/11/12 15:00:05;;;;;;;;;;;;;;;9.15;100.00;98298.38;5069952;28;19935;-88
2022/11/12 15:02:55;;;;;;;;;;;;;;;9.16;100.00;98308.88;5054190;28;19928;-91
2022/11/12 15:06:18;;;;;;;;;;;;;;;9.18;100.00;98303.25;5062655;28;20401;-88
2022/11/12 15:09:08;;;;;;;;;;;;;;;9.21;100.00;98318.88;5084278;28;20367;-87
2022/11/12 15:11:58;;;;;;;;;;;;;;;9.24;100.00;98318.38;5062037;28;19950;-87
2022/11/12 15:14:45;;;;;;;;;;;;;;;9.25;100.00;98320.03;5052429;28;19963;-88
2022/11/12 15:17:32;;;;;;;;;;;;;;;9.24;100.00;98307.59;5073709;28;19928;-88
2022/11/12 15:20:23;;;;;;;;;;;;;;;9.24;100.00;98316.53;5091330;28;19969;-88
2022/11/12 15:23:16;;;;;;;;;;;;;;;9.23;100.00;98308.69;5060824;28;20389;-86
2022/11/12 15:26:12;;;;;;;;;;;;;;;9.23;100.00;98317.56;5074235;28;19932;-86
2022/11/12 15:29:24;;;;;;;;;;;;;;;9.24;100.00;98315.69;4999355;22;10001612;-89
2022/11/12 15:32:10;;;;;;;;;;;;;;;9.28;100.00;98304.16;5069277;28;19952;-86
2022/11/12 15:34:58;;;;;;;;;;;;;;;9.26;100.00;98305.47;5070796;28;20626;-85
2022/11/12 15:38:03;;;;;;;;;;;;;;;9.28;100.00;98298.78;5069019;28;20446;-85
2022/11/12 15:40:59;;;;;;;;;;;;;;;9.28;100.00;98300.66;5072148;28;20406;-88
2022/11/12 15:44:48;;;;;;;;;;;;;;;;;;;;;
2022/11/12 15:47:40;;;;;;;;;;;;;;;9.28;100.00;98268.34;5063983;28;20583;-87
2022/11/12 15:50:26;;;;;;;;;;;;;;;9.30;100.00;98317.38;5068002;28;19929;-87
2022/11/12 15:53:16;;;;;;;;;;;;;;;9.32;100.00;98296.41;5083802;28;20309;-88
2022/11/12 15:56:17;;;;;;;;;;;;;;;9.33;100.00;98296.13;5072298;28;20378;-86
2022/11/12 15:59:20;;;;;;;;;;;;;;;9.44;100.00;98290.84;5068214;28;20568;-89
2022/11/12 16:02:15;;;;;;;;;;;;;;;9.49;100.00;98315.13;5067995;28;20387;-86
2022/11/12 16:05:05;;;;;;;;;;;;;;;9.51;100.00;98305.75;5068812;28;19929;-89
2022/11/12 16:08:19;;;;;;;;;;;;;;;9.54;100.00;98313.34;5046434;28;20418;-88
2022/11/12 16:11:34;;;;;;;;;;;;;;;9.51;100.00;98289.56;5073668;28;20403;-86
2022/11/12 16:14:11;;;;;;;;;;;;;;;9.55;100.00;98290.72;5068918;28;20240;-85
2022/11/12 16:16:57;;;;;;;;;;;;;;;9.54;100.00;98270.22;5055791;28;19929;-87
2022/11/12 16:19:44;;;;;;;;;;;;;;;9.54;100.00;98294.47;5069851;28;19980;-86
2022/11/12 16:22:30;;;;;;;;;;;;;;;9.53;100.00;98286.63;5054201;28;19943;-86
2022/11/12 16:25:23;;;;;;;;;;;;;;;9.43;100.00;98284.66;5062024;28;19982;-87
2022/11/12 16:28:19;;;;;;;;;;;;;;;9.44;100.00;98288.97;5038362;28;20383;-87
2022/11/12 16:32:00;;;;;;;;;;;;;;;9.50;100.00;98312.22;5054981;28;20577;-86
2022/11/12 16:34:48;;;;;;;;;;;;;;;9.57;100.00;98313.88;5054849;28;20003;-87
2022/11/12 16:37:34;;;;;;;;;;;;;;;9.56;100.00;98313.06;5052914;28;19933;-88
2022/11/12 16:40:22;;;;;;;;;;;;;;;9.59;100.00;98327.91;5050146;28;20019;-86
2022/11/12 16:43:08;;;;;;;;;;;;;;;9.61;100.00;98331.16;5066659;28;20035;-88
2022/11/12 16:46:41;;;;;;;;;;;;;;;9.59;100.00;98301.78;5054928;28;19928;-87
2022/11/12 16:49:27;;;;;;;;;;;;;;;9.58;100.00;98288.56;5067473;28;20025;-88
2022/11/12 16:52:38;;;;;;;;;;;;;;;9.65;100.00;98311.53;4718538;28;10000245;-89
2022/11/12 16:55:34;;;;;;;;;;;;;;;9.65;100.00;98316.94;5064896;28;19982;-89
2022/11/12 16:58:21;;;;;;;;;;;;;;;9.52;100.00;98314.63;5061222;28;19928;-88
2022/11/12 17:01:11;;;;;;;;;;;;;;;9.48;100.00;98303.56;5061170;28;20469;-91
2022/11/12 17:04:00;;;;;;;;;;;;;;;9.46;100.00;98303.00;5071775;28;19928;-89
2022/11/12 17:06:56;;;;;;;;;;;;;;;9.46;100.00;98312.97;5083684;28;19947;-90
2022/11/12 17:09:57;;;;;;;;;;;;;;;9.46;99.85;98305.69;5058955;28;19936;-87
2022/11/12 17:12:47;;;;;;;;;;;;;;;9.45;99.22;98287.91;5056264;28;19994;-88
2022/11/12 17:15:50;;;;;;;;;;;;;;;9.41;99.87;98305.63;5052970;28;20027;-89
2022/11/12 17:18:41;;;;;;;;;;;;;;;9.56;99.07;98310.38;5063093;28;20471;-88
2022/11/12 17:21:30;;;;;;;;;;;;;;;9.60;98.56;98319.56;5077385;28;19936;-91
2022/11/12 17:24:28;;;;;;;;;;;;;;;9.64;98.37;98312.59;5078048;28;19988;-91
2022/11/12 17:27:27;;;;;;;;;;;;;;;9.64;98.51;98315.28;5036426;28;19987;-87
2022/11/12 17:30:15;;;;;;;;;;;;;;;9.63;98.68;98320.94;5075665;28;19935;-89
2022/11/12 17:33:01;;;;;;;;;;;;;;;9.73;97.59;98334.53;5074587;28;19988;-89
2022/11/12 17:35:50;;;;;;;;;;;;;;;9.83;96.20;98334.59;5054835;28;19934;-90
2022/11/12 17:42:42;;;;;;;;;;;;;;;9.72;95.63;98349.03;4993171;28;20393;-92
2022/11/12 17:45:32;;;;;;;;;;;;;;;9.69;95.07;98353.06;4980423;28;20427;-89
2022/11/12 17:48:35;;;;;;;;;;;;;;;9.68;94.10;98354.13;4983893;28;19929;-89
2022/11/12 17:51:33;;;;;;;;;;;;;;;9.73;92.89;98346.09;4996734;28;19952;-86
2022/11/12 17:54:19;;;;;;;;;;;;;;;9.70;92.32;98345.81;5017178;28;19933;-89
2022/11/12 17:57:36;;;;;;;;;;;;;;;9.75;91.17;98354.75;4995631;28;19952;-89
2022/11/12 18:00:58;;;;;;;;;;;;;;;9.72;90.49;98365.22;5014692;28;19949;-88
2022/11/12 18:03:51;;;;;;;;;;;;;;;9.72;89.80;98370.59;4939033;28;19997;-89
2022/11/12 18:07:00;;;;;;;;;;;;;;;9.73;89.35;98361.47;4942230;29;19931;-87
2022/11/12 18:09:52;;;;;;;;;;;;;;;9.81;88.17;98374.47;4920931;29;19934;-88
2022/11/12 18:12:40;;;;;;;;;;;;;;;9.90;87.35;98358.63;4934146;29;19934;-89
2022/11/12 18:15:26;;;;;;;;;;;;;;;9.90;86.95;98372.94;4954647;28;20029;-90
2022/11/12 18:18:13;;;;;;;;;;;;;;;9.82;87.01;98365.31;4951389;28;19934;-89
2022/11/12 18:21:13;;;;;;;;;;;;;;;9.79;86.42;98348.84;5001971;28;19940;-92
2022/11/12 18:24:14;;;;;;;;;;;;;;;9.69;86.30;98366.53;4993416;28;19956;-90
2022/11/12 18:27:04;;;;;;;;;;;;;;;9.65;86.01;98354.66;5007677;28;20069;-90
2022/11/12 18:29:50;;;;;;;;;;;;;;;9.57;85.92;98365.88;4993521;28;19937;-89
2022/11/12 18:32:38;;;;;;;;;;;;;;;9.59;84.76;98389.88;5010177;28;20020;-89
2022/11/12 18:35:58;;;;;;;;;;;;;;;9.63;83.42;98354.09;4996129;28;20136;-88
2022/11/12 18:39:15;;;;;;;;;;;;;;;9.49;83.81;98364.44;5010742;28;19936;-91
2022/11/12 18:42:12;;;;;;;;;;;;;;;9.45;83.71;98351.75;5025913;28;19928;-87
2022/11/12 18:45:08;;;;;;;;;;;;;;;9.50;82.83;98360.69;5049409;28;19928;-90
2022/11/12 18:48:12;;;;;;;;;;;;;;;9.48;82.35;98362.81;5041674;28;19929;-89
2022/11/12 18:52:04;;;;;;;;;;;;;;;9.42;82.47;98365.69;4982398;28;20363;-89
2022/11/12 18:55:05;;;;;;;;;;;;;;;9.30;83.25;98371.25;4994988;28;19975;-88
2022/11/12 18:58:20;;;;;;;;;;;;;;;9.34;83.15;98372.34;4960061;28;19930;-87
2022/11/12 19:01:22;;;;;;;;;;;;;;;9.18;83.80;98373.25;5026246;28;19929;-88
2022/11/12 19:04:13;;;;;;;;;;;;;;;9.16;84.18;98367.28;5016306;28;19928;-88
2022/11/12 19:07:06;;;;;;;;;;;;;;;9.12;84.29;98380.44;5042025;28;19935;-88
2022/11/12 19:09:57;;;;;;;;;;;;;;;9.22;83.47;98367.09;5067574;28;19982;-88
2022/11/12 19:13:02;;;;;;;;;;;;;;;9.19;83.31;98372.16;5064814;28;19909;-89